Time;durP1;ratioP1;P1;durP2;ratioP2;P2;SDS_P1;SDS_P2;PMS_P1;PMS_P2;Temp;Humidity;BMP_temperature;BMP_pressure;BME280_temperature;BME280_humidity;BME280_pressure;Samples;Min_cycle;Max_cycle;Signal;HPM_P1;HPM_P2
2023/05/21 00:01:05;;;;;;;13.30;8.05;;;17.80;98.40;;;;;;10220641;28;20079;-66
2023/05/21 00:05:56;;;;;;;12.02;7.78;;;17.80;98.50;;;;;;10220306;27;20244;-62
2023/05/21 00:10:46;;;;;;;14.77;7.78;;;17.80;98.60;;;;;;10204131;28;20036;-62
2023/05/21 00:15:37;;;;;;;13.40;8.45;;;17.80;98.60;;;;;;10221673;28;20474;-62
2023/05/21 00:20:31;;;;;;;12.02;8.05;;;17.70;98.80;;;;;;10229494;27;20192;-62
2023/05/21 00:25:21;;;;;;;12.60;8.20;;;17.70;98.60;;;;;;10214786;28;20106;-63
2023/05/21 00:30:14;;;;;;;14.48;9.23;;;17.70;98.60;;;;;;10213244;27;20068;-62
2023/05/21 00:35:05;;;;;;;13.18;9.00;;;17.70;98.70;;;;;;10223222;27;20023;-63
2023/05/21 00:39:56;;;;;;;14.65;8.93;;;17.60;99.20;;;;;;10217033;27;20051;-62
2023/05/21 00:44:47;;;;;;;14.05;9.10;;;17.60;99.00;;;;;;10211214;28;20040;-62
2023/05/21 00:49:37;;;;;;;17.55;10.43;;;17.60;98.90;;;;;;10216884;28;20034;-65
2023/05/21 00:54:29;;;;;;;18.40;8.52;;;17.50;99.20;;;;;;10221177;28;20024;-63
2023/05/21 00:59:20;;;;;;;14.13;7.78;;;17.50;99.30;;;;;;10214167;28;20501;-63
2023/05/21 01:04:11;;;;;;;15.25;9.98;;;17.60;99.20;;;;;;10228240;27;20054;-64
2023/05/21 01:09:03;;;;;;;15.23;9.40;;;17.50;99.20;;;;;;10220600;28;20061;-65
2023/05/21 01:13:54;;;;;;;16.40;8.38;;;17.50;99.30;;;;;;10214019;28;20011;-65
2023/05/21 01:18:45;;;;;;;14.90;9.35;;;17.50;99.40;;;;;;10222257;28;20473;-61
2023/05/21 01:23:36;;;;;;;18.05;9.88;;;17.40;99.50;;;;;;10220243;28;20032;-62
2023/05/21 01:28:28;;;;;;;14.95;8.35;;;17.50;99.40;;;;;;10225825;28;20031;-67
2023/05/21 01:33:26;;;;;;;11.75;8.15;;;17.50;99.50;;;;;;10220620;28;20019;-68
2023/05/21 01:38:27;;;;;;;13.50;8.50;;;17.50;99.60;;;;;;10220835;28;20282;-64
2023/05/21 01:43:19;;;;;;;11.35;7.97;;;17.40;99.70;;;;;;10218764;28;20119;-63
2023/05/21 01:48:11;;;;;;;13.40;8.88;;;17.30;99.80;;;;;;10209542;28;20034;-63
2023/05/21 01:53:04;;;;;;;13.20;8.02;;;17.30;99.90;;;;;;10220081;28;20416;-66
2023/05/21 01:57:55;;;;;;;15.88;8.75;;;17.20;99.90;;;;;;10219941;28;20228;-62
2023/05/21 02:02:46;;;;;;;13.75;9.05;;;17.30;99.90;;;;;;10213120;28;20282;-65
2023/05/21 02:07:37;;;;;;;13.65;8.48;;;17.30;99.90;;;;;;10220489;28;20151;-64
2023/05/21 02:12:28;;;;;;;12.52;8.57;;;17.30;99.90;;;;;;10219413;28;20054;-62
2023/05/21 02:17:18;;;;;;;13.43;7.97;;;17.20;99.90;;;;;;10200538;28;20081;-64
2023/05/21 02:22:10;;;;;;;11.93;8.13;;;17.10;99.90;;;;;;10219322;28;20019;-63
2023/05/21 02:27:01;;;;;;;13.30;8.90;;;17.20;99.90;;;;;;10226054;28;20020;-66
2023/05/21 02:31:52;;;;;;;13.68;8.75;;;17.20;99.90;;;;;;10218443;28;20524;-62
2023/05/21 02:36:43;;;;;;;15.85;9.07;;;17.20;99.90;;;;;;10201699;28;20031;-63
2023/05/21 02:41:33;;;;;;;20.02;10.02;;;17.20;99.90;;;;;;10217351;27;20034;-61
2023/05/21 02:46:24;;;;;;;12.48;9.02;;;17.20;99.90;;;;;;10216310;28;20023;-62
2023/05/21 02:51:15;;;;;;;14.05;8.45;;;17.10;99.90;;;;;;10225917;28;20028;-63
2023/05/21 02:56:05;;;;;;;12.35;8.73;;;17.10;99.90;;;;;;10227307;27;20080;-65
2023/05/21 03:00:56;;;;;;;12.88;8.13;;;17.10;99.90;;;;;;10201182;28;20078;-62
2023/05/21 03:05:47;;;;;;;14.50;8.93;;;17.10;99.90;;;;;;10197428;28;20039;-64
2023/05/21 03:10:37;;;;;;;15.43;9.20;;;17.00;99.90;;;;;;10207807;28;20036;-63
2023/05/21 03:15:32;;;;;;;11.32;7.25;;;17.00;99.90;;;;;;10216249;28;20016;-62
2023/05/21 03:20:22;;;;;;;15.35;9.35;;;17.00;99.90;;;;;;10220899;27;20031;-63
2023/05/21 03:25:13;;;;;;;14.10;8.95;;;17.10;99.90;;;;;;10200740;28;20045;-63
2023/05/21 03:30:05;;;;;;;12.82;8.85;;;17.00;99.90;;;;;;10223593;28;20491;-62
2023/05/21 03:34:55;;;;;;;14.45;9.30;;;17.00;99.90;;;;;;10208277;27;20378;-73
2023/05/21 03:39:46;;;;;;;12.20;8.60;;;16.90;99.90;;;;;;10223657;28;20035;-64
2023/05/21 03:44:36;;;;;;;13.40;8.73;;;16.90;99.90;;;;;;10213770;28;20035;-62
2023/05/21 03:49:27;;;;;;;14.73;9.88;;;16.90;99.90;;;;;;10195357;28;20030;-62
2023/05/21 03:54:18;;;;;;;15.25;8.98;;;16.90;99.90;;;;;;10224200;28;20408;-63
2023/05/21 03:59:08;;;;;;;13.40;7.85;;;16.90;99.90;;;;;;10216472;28;20469;-65
2023/05/21 04:03:59;;;;;;;17.70;9.32;;;16.90;99.90;;;;;;10222177;28;20081;-66
2023/05/21 04:08:50;;;;;;;13.40;8.98;;;16.80;99.90;;;;;;10219566;28;20027;-64
2023/05/21 04:13:41;;;;;;;14.30;8.68;;;16.80;99.90;;;;;;10221816;28;20344;-62
2023/05/21 04:18:33;;;;;;;15.98;10.27;;;16.80;99.90;;;;;;10203658;28;20489;-65
2023/05/21 04:23:23;;;;;;;14.68;10.25;;;16.90;99.90;;;;;;10221639;28;20015;-66
2023/05/21 04:28:18;;;;;;;14.77;9.98;;;17.00;99.90;;;;;;10221462;28;20032;-63
2023/05/21 04:33:09;;;;;;;17.05;10.50;;;17.00;99.90;;;;;;10227518;27;20216;-62
2023/05/21 04:38:00;;;;;;;15.70;10.32;;;17.10;99.90;;;;;;10220675;28;20578;-63
2023/05/21 04:42:51;;;;;;;16.65;9.43;;;17.00;99.90;;;;;;10221319;28;20016;-63
2023/05/21 04:47:42;;;;;;;17.65;9.75;;;17.00;99.90;;;;;;10211393;27;20024;-63
2023/05/21 04:52:33;;;;;;;14.65;9.45;;;16.90;99.90;;;;;;10220958;28;20070;-63
2023/05/21 04:57:24;;;;;;;12.80;7.65;;;17.00;99.90;;;;;;10220392;28;20238;-62
2023/05/21 05:02:15;;;;;;;10.77;8.05;;;17.00;99.90;;;;;;10214579;27;20576;-63
2023/05/21 05:07:06;;;;;;;14.27;9.15;;;17.00;99.90;;;;;;10204131;27;20024;-62
2023/05/21 05:11:57;;;;;;;14.10;8.82;;;17.00;99.90;;;;;;10207963;28;20112;-62
2023/05/21 05:16:47;;;;;;;13.20;8.70;;;17.00;99.90;;;;;;10218573;28;20072;-63
2023/05/21 05:21:38;;;;;;;14.18;8.40;;;17.00;99.90;;;;;;10214224;28;20027;-62
2023/05/21 05:26:28;;;;;;;18.27;10.93;;;16.90;99.90;;;;;;10219626;28;20446;-62
2023/05/21 05:31:19;;;;;;;15.07;8.60;;;17.00;99.90;;;;;;10230944;27;20028;-63
2023/05/21 05:36:10;;;;;;;15.15;9.40;;;17.20;99.90;;;;;;10219544;28;20343;-62
2023/05/21 05:41:00;;;;;;;16.83;9.18;;;17.10;99.90;;;;;;10213947;28;20405;-62
2023/05/21 05:45:51;;;;;;;13.38;8.05;;;17.10;99.90;;;;;;10210656;28;20036;-66
2023/05/21 05:50:42;;;;;;;13.55;8.05;;;17.10;99.90;;;;;;10219370;28;20120;-65
2023/05/21 05:55:33;;;;;;;14.25;9.18;;;17.20;99.90;;;;;;10224768;28;20436;-63
2023/05/21 06:00:24;;;;;;;12.45;8.45;;;17.30;99.90;;;;;;10213638;28;20023;-64
2023/05/21 06:05:15;;;;;;;13.98;8.20;;;17.30;99.90;;;;;;10222726;28;20264;-65
2023/05/21 06:10:07;;;;;;;12.02;8.38;;;17.40;99.90;;;;;;10218516;28;20039;-62
2023/05/21 06:14:57;;;;;;;12.32;7.85;;;17.50;99.90;;;;;;10226015;28;20020;-63
2023/05/21 06:19:48;;;;;;;15.85;8.80;;;17.30;99.90;;;;;;10226539;28;20122;-62
2023/05/21 06:24:39;;;;;;;14.25;8.68;;;17.50;99.90;;;;;;10227457;27;20133;-64
2023/05/21 06:29:29;;;;;;;14.18;9.27;;;17.60;99.90;;;;;;10207833;28;20023;-63
2023/05/21 06:34:20;;;;;;;12.75;8.82;;;17.60;99.90;;;;;;10208726;28;20027;-63
2023/05/21 06:39:10;;;;;;;13.05;8.25;;;17.60;99.90;;;;;;10232382;27;20027;-62
2023/05/21 06:44:01;;;;;;;15.93;8.90;;;17.70;99.90;;;;;;10217904;28;20027;-62
2023/05/21 06:48:52;;;;;;;17.05;9.00;;;17.70;99.90;;;;;;10216288;28;20024;-62
2023/05/21 06:53:43;;;;;;;14.45;9.48;;;17.60;99.90;;;;;;10225292;28;20554;-64
2023/05/21 06:58:33;;;;;;;14.60;8.90;;;17.70;99.90;;;;;;10201801;28;20034;-62
2023/05/21 07:03:24;;;;;;;16.40;9.45;;;17.90;99.90;;;;;;10223802;28;20062;-63
2023/05/21 07:08:15;;;;;;;16.10;9.48;;;18.00;99.90;;;;;;10226419;27;20072;-63
2023/05/21 07:13:06;;;;;;;13.93;8.98;;;18.10;99.90;;;;;;10224396;28;20652;-65
2023/05/21 07:17:56;;;;;;;15.32;9.65;;;18.30;99.90;;;;;;10223391;28;20122;-62
2023/05/21 07:22:47;;;;;;;11.93;8.32;;;18.30;99.90;;;;;;10228921;27;20024;-64
2023/05/21 07:27:38;;;;;;;15.13;8.82;;;18.30;99.90;;;;;;10224271;28;20027;-63
2023/05/21 07:32:28;;;;;;;13.90;8.80;;;18.30;99.90;;;;;;10205771;28;20131;-62
2023/05/21 07:37:19;;;;;;;17.75;9.65;;;18.40;99.90;;;;;;10233117;27;20072;-64
2023/05/21 07:42:10;;;;;;;17.35;10.20;;;18.60;99.90;;;;;;10215614;28;20358;-67
2023/05/21 07:47:01;;;;;;;15.23;9.18;;;18.90;99.90;;;;;;10215166;27;20020;-64
2023/05/21 07:51:51;;;;;;;13.73;8.45;;;19.00;99.90;;;;;;10224471;27;20020;-67
2023/05/21 07:56:42;;;;;;;15.27;8.20;;;19.10;99.90;;;;;;10222978;28;20374;-65
2023/05/21 08:01:33;;;;;;;14.38;8.88;;;19.30;99.90;;;;;;10200110;27;20065;-69
2023/05/21 08:06:26;;;;;;;13.98;9.13;;;19.30;99.90;;;;;;10227782;27;20096;-64
2023/05/21 08:11:17;;;;;;;14.35;9.90;;;19.60;99.90;;;;;;10222819;28;20027;-65
2023/05/21 08:16:08;;;;;;;12.43;9.02;;;19.50;99.90;;;;;;10205107;27;20512;-63
2023/05/21 08:20:59;;;;;;;15.10;9.50;;;19.50;99.90;;;;;;10222169;28;20050;-64
2023/05/21 08:25:49;;;;;;;14.73;9.45;;;19.50;99.90;;;;;;10221824;28;20500;-64
2023/05/21 08:30:40;;;;;;;14.27;8.85;;;19.50;99.90;;;;;;10222385;27;20034;-62
2023/05/21 08:35:31;;;;;;;13.65;8.85;;;19.50;99.90;;;;;;10221590;28;20020;-62
2023/05/21 08:40:22;;;;;;;15.35;9.43;;;19.70;99.90;;;;;;10198439;28;20164;-63
2023/05/21 08:45:15;;;;;;;14.63;9.07;;;19.90;99.90;;;;;;10216923;27;20036;-62
2023/05/21 08:50:26;;;;;;;13.63;8.15;;;19.90;99.90;;;;;;10199920;28;20030;-63
2023/05/21 08:55:17;;;;;;;16.67;9.35;;;19.90;99.90;;;;;;10221087;28;20541;-62
2023/05/21 09:00:09;;;;;;;15.18;9.10;;;20.20;99.90;;;;;;10223919;27;20046;-63
2023/05/21 09:05:02;;;;;;;14.63;9.23;;;20.30;99.90;;;;;;10205514;28;20036;-65
2023/05/21 09:09:54;;;;;;;13.93;9.15;;;20.40;99.90;;;;;;10207193;28;20036;-63
2023/05/21 09:14:46;;;;;;;16.38;9.73;;;20.50;99.90;;;;;;10214367;27;20035;-63
2023/05/21 09:19:37;;;;;;;13.70;8.50;;;20.50;99.90;;;;;;10214517;28;20497;-65
2023/05/21 09:24:30;;;;;;;17.05;9.65;;;20.50;99.90;;;;;;10219316;28;20026;-64
2023/05/21 09:29:21;;;;;;;11.43;9.13;;;20.60;99.90;;;;;;10224557;27;20035;-63
2023/05/21 09:34:13;;;;;;;13.45;10.02;;;20.60;99.90;;;;;;10201446;28;20024;-66
2023/05/21 09:39:04;;;;;;;14.77;9.45;;;20.70;99.90;;;;;;10219045;28;20062;-64
2023/05/21 09:43:59;;;;;;;12.95;9.13;;;21.00;99.90;;;;;;10210246;28;20134;-63
2023/05/21 09:48:49;;;;;;;12.70;7.72;;;21.00;99.90;;;;;;10216573;28;20023;-67
2023/05/21 09:53:44;;;;;;;15.25;9.77;;;21.00;99.90;;;;;;10227982;28;20157;-70
2023/05/21 09:58:35;;;;;;;12.02;8.48;;;21.10;99.90;;;;;;10203900;28;20084;-64
2023/05/21 10:03:27;;;;;;;12.73;9.23;;;21.10;99.90;;;;;;10227340;28;20351;-63
2023/05/21 10:08:20;;;;;;;15.00;9.43;;;21.10;99.90;;;;;;10230596;27;20047;-63
2023/05/21 10:13:13;;;;;;;13.93;9.32;;;21.20;99.90;;;;;;10227478;27;20419;-62
2023/05/21 10:18:05;;;;;;;17.90;9.38;;;21.30;99.90;;;;;;10226582;28;20039;-64
2023/05/21 10:22:57;;;;;;;16.98;10.00;;;21.50;99.90;;;;;;10235501;27;20026;-64
2023/05/21 10:27:48;;;;;;;14.32;9.45;;;21.50;99.90;;;;;;10226823;27;20055;-70
2023/05/21 10:32:42;;;;;;;11.85;8.60;;;21.50;99.90;;;;;;10226167;28;20072;-63
2023/05/21 10:37:34;;;;;;;13.93;8.15;;;21.70;99.90;;;;;;10226482;28;20460;-62
2023/05/21 10:42:30;;;;;;;15.00;9.45;;;21.70;99.90;;;;;;10216478;28;20063;-62
2023/05/21 10:47:36;;;;;;;15.00;10.15;;;21.90;99.90;;;;;;10196746;28;20039;-63
2023/05/21 10:52:34;;;;;;;14.07;9.30;;;22.00;99.90;;;;;;10230325;27;20077;-62
2023/05/21 10:57:43;;;;;;;13.27;8.77;;;22.30;99.90;;;;;;10224521;28;20536;-65
2023/05/21 11:02:34;;;;;;;13.63;9.10;;;22.30;99.90;;;;;;10218717;28;20075;-64
2023/05/21 11:07:52;;;;;;;13.02;9.05;;;22.40;99.90;;;;;;10215726;27;20032;-71
2023/05/21 11:13:13;;;;;;;14.10;9.02;;;22.50;99.80;;;;;;10225014;28;20370;-65
2023/05/21 11:18:03;;;;;;;12.80;8.55;;;22.50;99.70;;;;;;10215758;28;20082;-62
2023/05/21 11:22:57;;;;;;;11.93;8.35;;;22.60;99.70;;;;;;10206986;28;20020;-62
2023/05/21 11:27:47;;;;;;;11.75;8.07;;;22.90;99.50;;;;;;10224028;28;20031;-65
2023/05/21 11:32:46;;;;;;;11.65;7.78;;;22.90;99.30;;;;;;10223672;28;20039;-63
2023/05/21 11:37:39;;;;;;;12.80;8.52;;;23.00;99.20;;;;;;10223653;28;20489;-65
2023/05/21 11:42:37;;;;;;;10.57;8.55;;;23.20;99.00;;;;;;10215170;28;20280;-68
2023/05/21 11:47:28;;;;;;;10.07;7.40;;;23.20;98.80;;;;;;10216175;27;20055;-63
2023/05/21 11:52:19;;;;;;;11.30;7.15;;;23.30;98.80;;;;;;10223650;28;20041;-65
2023/05/21 11:57:10;;;;;;;10.82;6.93;;;23.50;98.40;;;;;;10223867;28;20057;-63
2023/05/21 12:02:01;;;;;;;10.85;7.68;;;23.60;98.20;;;;;;10178199;28;20577;-65
2023/05/21 12:06:52;;;;;;;9.63;6.50;;;23.60;98.00;;;;;;10194469;28;20059;-65
2023/05/21 12:11:43;;;;;;;10.23;7.68;;;23.90;97.70;;;;;;10212370;28;20042;-67
2023/05/21 12:16:34;;;;;;;9.38;7.32;;;24.20;97.60;;;;;;10214364;27;20296;-62
2023/05/21 12:21:30;;;;;;;9.82;6.72;;;24.60;97.30;;;;;;10213007;28;20046;-65
2023/05/21 12:26:24;;;;;;;8.32;7.07;;;24.70;97.30;;;;;;10215658;28;20473;-63
2023/05/21 12:31:15;;;;;;;9.68;7.05;;;25.00;97.10;;;;;;10230522;27;20016;-62
2023/05/21 12:36:06;;;;;;;9.25;6.75;;;25.30;96.90;;;;;;10203295;28;20064;-63
2023/05/21 12:41:03;;;;;;;8.85;7.28;;;25.80;96.80;;;;;;10214257;28;20382;-62
2023/05/21 12:45:53;;;;;;;9.32;6.68;;;26.40;96.30;;;;;;10212976;27;20506;-64
2023/05/21 12:50:44;;;;;;;9.45;7.13;;;26.50;95.90;;;;;;10220839;28;20146;-65
2023/05/21 12:55:35;;;;;;;11.05;7.50;;;26.90;95.60;;;;;;10220868;28;20026;-63
2023/05/21 13:00:25;;;;;;;8.77;7.03;;;27.40;95.10;;;;;;10220463;27;20106;-63
2023/05/21 13:05:17;;;;;;;9.65;7.18;;;28.30;94.50;;;;;;10219905;28;20557;-63
2023/05/21 13:10:08;;;;;;;8.65;6.35;;;29.10;93.40;;;;;;10219970;28;20027;-65
2023/05/21 13:15:00;;;;;;;7.13;6.43;;;29.00;93.10;;;;;;10227611;27;20035;-64
2023/05/21 13:20:16;;;;;;;7.82;6.63;;;29.50;92.50;;;;;;10220042;28;20127;-62
2023/05/21 13:25:08;;;;;;;7.78;6.53;;;29.90;91.80;;;;;;10220175;27;20497;-62
2023/05/21 13:29:59;;;;;;;7.60;6.82;;;30.80;91.30;;;;;;10219688;28;20032;-64
2023/05/21 13:34:49;;;;;;;6.95;6.22;;;30.60;90.80;;;;;;10219686;28;20533;-67
2023/05/21 13:39:40;;;;;;;9.52;6.75;;;31.20;90.30;;;;;;10224488;28;20039;-62
2023/05/21 13:44:34;;;;;;;6.43;5.63;;;32.20;88.70;;;;;;10208837;28;20027;-67
2023/05/21 13:49:25;;;;;;;7.03;5.68;;;32.20;87.00;;;;;;10210028;28;20277;-64
2023/05/21 13:54:16;;;;;;;6.73;5.77;;;32.60;85.30;;;;;;10230381;28;20027;-64
2023/05/21 13:59:06;;;;;;;6.50;5.03;;;33.10;83.70;;;;;;10211577;28;20046;-62
2023/05/21 14:04:02;;;;;;;6.73;5.47;;;32.70;81.90;;;;;;10218481;28;20058;-66
2023/05/21 14:08:53;;;;;;;6.45;5.70;;;32.90;81.10;;;;;;10202167;28;20097;-67
2023/05/21 14:13:44;;;;;;;8.10;6.20;;;32.60;79.50;;;;;;10200670;28;20020;-63
2023/05/21 14:18:34;;;;;;;6.57;5.70;;;32.90;78.20;;;;;;10218235;28;20028;-65
2023/05/21 14:23:25;;;;;;;8.43;7.20;;;33.20;77.00;;;;;;10224731;28;20099;-67
2023/05/21 14:28:15;;;;;;;6.20;5.60;;;33.40;76.30;;;;;;10218749;28;20027;-63
2023/05/21 14:33:06;;;;;;;6.00;5.17;;;33.00;75.60;;;;;;10220889;28;20024;-65
2023/05/21 14:37:57;;;;;;;6.47;5.17;;;33.10;74.90;;;;;;10207352;28;20519;-68
2023/05/21 14:42:48;;;;;;;7.40;5.10;;;33.90;73.80;;;;;;10217197;28;20015;-65
2023/05/21 14:47:38;;;;;;;6.13;5.13;;;33.70;72.90;;;;;;10215882;28;20027;-63
2023/05/21 14:52:29;;;;;;;5.83;4.77;;;34.40;71.50;;;;;;10226804;27;20524;-64
2023/05/21 14:57:19;;;;;;;5.03;4.53;;;33.50;71.70;;;;;;10225872;28;20036;-65
2023/05/21 15:02:10;;;;;;;5.53;4.93;;;32.80;71.60;;;;;;10222289;28;20063;-64
2023/05/21 15:07:01;;;;;;;6.20;5.13;;;33.00;70.90;;;;;;10227599;27;20019;-65
2023/05/21 15:11:52;;;;;;;7.57;5.10;;;33.10;70.80;;;;;;10224429;28;20020;-63
2023/05/21 15:16:43;;;;;;;7.13;6.43;;;33.10;70.20;;;;;;10224683;28;20547;-65
2023/05/21 15:21:34;;;;;;;6.13;5.50;;;34.10;69.70;;;;;;10232460;27;20043;-63
2023/05/21 15:26:25;;;;;;;7.23;4.63;;;34.80;68.80;;;;;;10223847;28;20027;-63
2023/05/21 15:31:16;;;;;;;4.97;4.47;;;34.10;68.10;;;;;;10224190;28;20061;-64
2023/05/21 15:36:07;;;;;;;5.63;4.73;;;34.10;68.20;;;;;;10222997;28;20028;-63
2023/05/21 15:40:57;;;;;;;5.27;4.77;;;34.10;67.20;;;;;;10214291;28;20047;-63
2023/05/21 15:45:48;;;;;;;5.23;4.67;;;34.20;66.70;;;;;;10215611;28;20023;-67
2023/05/21 15:50:39;;;;;;;6.70;4.97;;;35.00;65.70;;;;;;10223522;28;20444;-63
2023/05/21 15:55:33;;;;;;;5.37;4.33;;;34.70;65.40;;;;;;10223192;28;20028;-67
2023/05/21 16:00:24;;;;;;;6.20;4.80;;;34.90;64.80;;;;;;10224319;27;20041;-67
2023/05/21 16:05:14;;;;;;;6.10;4.77;;;35.80;64.10;;;;;;10223495;28;20027;-65
2023/05/21 16:10:08;;;;;;;5.23;4.57;;;36.80;63.20;;;;;;10234821;27;20031;-71
2023/05/21 16:14:59;;;;;;;5.45;4.95;;;36.90;62.10;;;;;;10224972;27;20055;-70
2023/05/21 16:19:49;;;;;;;6.30;4.25;;;35.10;63.40;;;;;;10222249;28;20387;-64
2023/05/21 16:24:40;;;;;;;4.85;4.35;;;34.30;63.90;;;;;;10223441;28;20123;-67
2023/05/21 16:29:31;;;;;;;7.35;4.75;;;34.20;63.60;;;;;;10225807;27;20122;-63
2023/05/21 16:34:21;;;;;;;7.72;4.78;;;32.60;64.70;;;;;;10222056;28;20045;-66
2023/05/21 16:39:12;;;;;;;5.85;5.13;;;30.90;66.70;;;;;;10221507;28;20564;-64
2023/05/21 16:44:03;;;;;;;6.80;4.53;;;30.20;67.10;;;;;;10228544;27;20019;-63
2023/05/21 16:48:53;;;;;;;8.50;5.22;;;30.50;66.70;;;;;;10211305;28;20034;-64
2023/05/21 16:53:44;;;;;;;10.77;6.60;;;30.10;67.00;;;;;;10221040;28;20019;-64
2023/05/21 16:58:35;;;;;;;7.20;4.97;;;29.70;67.60;;;;;;10217130;27;20485;-63
2023/05/21 17:03:26;;;;;;;6.05;5.18;;;29.30;68.00;;;;;;10220216;28;20071;-64
2023/05/21 17:08:17;;;;;;;6.03;4.80;;;29.20;68.40;;;;;;10221140;28;20027;-63
2023/05/21 17:13:07;;;;;;;8.95;5.40;;;29.10;68.70;;;;;;10220030;28;20016;-62
2023/05/21 17:17:58;;;;;;;6.45;4.78;;;29.00;68.90;;;;;;10202038;28;20130;-64
2023/05/21 17:22:49;;;;;;;6.65;4.53;;;28.90;69.30;;;;;;10220339;28;20015;-68
2023/05/21 17:27:39;;;;;;;6.68;4.78;;;28.80;69.50;;;;;;10224239;27;20026;-72
2023/05/21 17:32:30;;;;;;;10.20;6.90;;;29.00;69.40;;;;;;10220765;28;20030;-64
2023/05/21 17:37:21;;;;;;;7.10;5.82;;;29.20;69.40;;;;;;10220276;28;20039;-63
2023/05/21 17:42:12;;;;;;;8.23;5.50;;;29.20;69.60;;;;;;10213264;28;20027;-68
2023/05/21 17:47:03;;;;;;;7.05;5.55;;;29.30;69.70;;;;;;10211040;28;20341;-66
2023/05/21 17:51:53;;;;;;;7.43;5.78;;;29.00;70.30;;;;;;10221132;28;20020;-64
2023/05/21 17:56:44;;;;;;;9.38;5.25;;;28.50;70.70;;;;;;10223717;28;20031;-63
2023/05/21 18:01:37;;;;;;;8.07;5.57;;;28.10;71.50;;;;;;10194803;28;20047;-67
2023/05/21 18:06:29;;;;;;;7.05;5.20;;;27.90;71.70;;;;;;10224354;27;20019;-64
2023/05/21 18:11:26;;;;;;;10.02;4.90;;;27.60;72.20;;;;;;10214092;27;20177;-66
2023/05/21 18:16:17;;;;;;;9.48;5.35;;;27.50;72.50;;;;;;10211399;28;20038;-64
2023/05/21 18:21:08;;;;;;;6.40;4.82;;;27.20;73.00;;;;;;10229995;27;20023;-62
2023/05/21 18:25:59;;;;;;;7.68;4.75;;;26.90;73.30;;;;;;10227972;28;20050;-63
2023/05/21 18:30:50;;;;;;;5.80;4.38;;;26.80;73.30;;;;;;10228079;28;20507;-63
2023/05/21 18:35:42;;;;;;;7.47;4.85;;;26.80;73.60;;;;;;10229709;27;20024;-64
2023/05/21 18:40:33;;;;;;;7.38;4.95;;;26.60;73.60;;;;;;10220070;28;20476;-63
2023/05/21 18:45:24;;;;;;;7.22;4.45;;;26.60;73.50;;;;;;10216815;28;20028;-64
2023/05/21 18:50:14;;;;;;;6.03;4.13;;;26.60;73.60;;;;;;10230576;27;20027;-63
2023/05/21 18:55:05;;;;;;;7.32;5.10;;;26.50;73.60;;;;;;10225715;28;20038;-63
2023/05/21 18:59:56;;;;;;;7.22;4.07;;;26.20;74.30;;;;;;10219811;28;20024;-64
2023/05/21 19:04:47;;;;;;;6.00;3.95;;;26.00;74.80;;;;;;10226327;27;20040;-64
2023/05/21 19:09:38;;;;;;;4.10;3.50;;;26.00;75.00;;;;;;10225800;28;20027;-62
2023/05/21 19:14:28;;;;;;;9.48;4.10;;;25.60;75.80;;;;;;10225412;28;20036;-68
2023/05/21 19:19:20;;;;;;;5.55;4.00;;;25.40;76.30;;;;;;10223805;28;20185;-64
2023/05/21 19:24:10;;;;;;;5.68;4.30;;;25.40;76.80;;;;;;10224691;28;20157;-64
2023/05/21 19:29:01;;;;;;;5.60;4.13;;;25.40;77.10;;;;;;10228671;27;20576;-63
2023/05/21 19:33:52;;;;;;;8.43;4.47;;;25.40;77.50;;;;;;10212643;28;20110;-65
2023/05/21 19:38:47;;;;;;;6.43;4.63;;;25.30;78.10;;;;;;10224511;28;20031;-65
2023/05/21 19:43:37;;;;;;;5.30;4.40;;;25.20;78.60;;;;;;10215240;28;20477;-63
2023/05/21 19:48:28;;;;;;;6.80;4.43;;;25.20;78.90;;;;;;10213394;27;20030;-62
2023/05/21 19:53:18;;;;;;;7.65;3.90;;;25.00;79.40;;;;;;10223818;28;20031;-66
2023/05/21 19:58:12;;;;;;;6.22;4.07;;;25.00;79.80;;;;;;10221461;28;20028;-64
2023/05/21 20:03:02;;;;;;;6.85;4.28;;;25.00;80.10;;;;;;10177311;28;20047;-64
2023/05/21 20:07:53;;;;;;;10.95;4.28;;;24.90;80.50;;;;;;10172720;28;20390;-64
2023/05/21 20:12:44;;;;;;;6.03;4.15;;;24.80;81.00;;;;;;10162191;28;20054;-65
2023/05/21 20:17:37;;;;;;;6.43;4.22;;;24.80;81.30;;;;;;10184929;28;20066;-70
2023/05/21 20:22:28;;;;;;;7.18;3.97;;;24.80;82.00;;;;;;10184621;28;20043;-65
2023/05/21 20:27:18;;;;;;;5.38;4.35;;;24.70;82.30;;;;;;10191368;28;20026;-68
2023/05/21 20:32:09;;;;;;;5.00;3.40;;;24.50;83.00;;;;;;10185985;28;20131;-67
2023/05/21 20:37:01;;;;;;;5.43;4.07;;;24.40;83.20;;;;;;10180891;28;20035;-74
2023/05/21 20:41:52;;;;;;;5.10;3.58;;;24.30;83.90;;;;;;10172832;28;20020;-64
2023/05/21 20:46:43;;;;;;;6.82;3.97;;;24.40;84.10;;;;;;10169347;28;20081;-64
2023/05/21 20:51:34;;;;;;;5.80;4.00;;;24.20;84.80;;;;;;10179437;28;20452;-63
2023/05/21 20:56:24;;;;;;;6.35;4.07;;;24.20;85.30;;;;;;10186740;28;20085;-67
2023/05/21 21:01:18;;;;;;;4.15;3.20;;;24.00;85.80;;;;;;10184142;28;20544;-63
2023/05/21 21:06:09;;;;;;;5.30;3.35;;;23.80;86.50;;;;;;10221358;28;20075;-64
2023/05/21 21:10:59;;;;;;;5.03;3.75;;;23.60;86.90;;;;;;10223033;27;20397;-81
2023/05/21 21:15:50;;;;;;;6.53;4.57;;;23.60;87.30;;;;;;10220105;28;20493;-62
2023/05/21 21:20:41;;;;;;;4.88;3.45;;;23.30;87.90;;;;;;10219862;28;20035;-66
2023/05/21 21:25:32;;;;;;;6.85;4.18;;;23.30;88.40;;;;;;10221349;28;20016;-63
2023/05/21 21:30:22;;;;;;;4.97;3.33;;;23.20;89.00;;;;;;10221226;28;20431;-64
2023/05/21 21:35:13;;;;;;;4.70;4.03;;;23.10;89.30;;;;;;10220836;28;20518;-64
2023/05/21 21:40:04;;;;;;;6.88;4.18;;;23.10;89.40;;;;;;10223018;28;20039;-64
2023/05/21 21:44:55;;;;;;;6.95;3.75;;;23.00;90.00;;;;;;10212964;28;20103;-64
2023/05/21 21:49:46;;;;;;;5.30;4.28;;;22.90;90.30;;;;;;10219595;28;20118;-77
2023/05/21 21:54:37;;;;;;;5.38;3.53;;;22.90;90.60;;;;;;10220754;28;20051;-63
2023/05/21 21:59:28;;;;;;;6.25;4.25;;;22.90;90.70;;;;;;10194633;28;20401;-64
2023/05/21 22:04:18;;;;;;;6.20;4.20;;;22.90;90.90;;;;;;10218671;28;20058;-66
2023/05/21 22:09:09;;;;;;;6.30;4.07;;;23.00;91.00;;;;;;10219990;28;20089;-63
2023/05/21 22:13:59;;;;;;;7.00;4.60;;;23.00;91.20;;;;;;10219065;28;20027;-66
2023/05/21 22:18:52;;;;;;;6.03;4.10;;;22.90;91.40;;;;;;10200297;28;20050;-63
2023/05/21 22:23:43;;;;;;;6.57;4.60;;;22.70;91.80;;;;;;10223606;28;20020;-66
2023/05/21 22:28:34;;;;;;;5.95;4.13;;;22.60;91.90;;;;;;10200954;28;20416;-63
2023/05/21 22:33:25;;;;;;;5.20;4.07;;;22.60;92.10;;;;;;10219005;28;20027;-63
2023/05/21 22:38:16;;;;;;;10.00;6.00;;;22.60;92.30;;;;;;10200365;28;20085;-63
2023/05/21 22:43:07;;;;;;;6.53;4.40;;;22.50;92.50;;;;;;10209164;28;20098;-63
2023/05/21 22:48:02;;;;;;;8.65;5.00;;;22.40;92.80;;;;;;10200500;28;20136;-63
2023/05/21 22:52:52;;;;;;;8.00;5.05;;;22.30;93.00;;;;;;10218512;28;20027;-63
2023/05/21 22:57:43;;;;;;;6.72;4.95;;;22.30;93.20;;;;;;10225427;28;20423;-63
2023/05/21 23:02:34;;;;;;;8.57;4.90;;;22.20;93.50;;;;;;10229857;27;20056;-62
2023/05/21 23:07:25;;;;;;;7.65;5.78;;;22.00;93.90;;;;;;10225282;28;20438;-63
2023/05/21 23:12:15;;;;;;;7.63;5.70;;;22.00;94.20;;;;;;10224591;28;20504;-63
2023/05/21 23:17:06;;;;;;;7.72;5.40;;;22.00;94.20;;;;;;10224897;27;20034;-62
2023/05/21 23:21:57;;;;;;;6.22;4.22;;;21.60;94.60;;;;;;10225260;27;20084;-62
2023/05/21 23:26:48;;;;;;;7.32;4.80;;;21.50;94.80;;;;;;10224869;28;20118;-77
2023/05/21 23:31:38;;;;;;;10.20;4.80;;;21.50;95.10;;;;;;10224978;27;20020;-64
2023/05/21 23:36:30;;;;;;;8.70;5.10;;;21.60;95.10;;;;;;10224290;28;20031;-63
2023/05/21 23:41:21;;;;;;;6.47;5.13;;;21.60;95.70;;;;;;10179185;28;20124;-67
2023/05/21 23:46:12;;;;;;;7.18;4.63;;;21.50;95.50;;;;;;10218229;27;20176;-64
2023/05/21 23:51:03;;;;;;;7.38;5.63;;;21.30;95.90;;;;;;10223226;28;20110;-64
2023/05/21 23:55:53;;;;;;;8.00;5.78;;;21.20;96.20;;;;;;10225200;27;20118;-63
